sensor_id;sensor_type;location;lat;lon;timestamp;P1;durP1;ratioP1;P2;durP2;ratioP2
33593;SDS011;19920;52.242;20.940;2023-12-20T00:02:19;18.17;;;13.40;;
33593;SDS011;19920;52.242;20.940;2023-12-20T00:04:44;18.77;;;13.73;;
33593;SDS011;19920;52.242;20.940;2023-12-20T00:07:10;20.48;;;14.13;;
33593;SDS011;19920;52.242;20.940;2023-12-20T00:09:36;19.88;;;13.00;;
33593;SDS011;19920;52.242;20.940;2023-12-20T00:12:01;18.63;;;13.85;;
33593;SDS011;19920;52.242;20.940;2023-12-20T00:14:27;16.77;;;12.38;;
33593;SDS011;19920;52.242;20.940;2023-12-20T00:16:53;20.15;;;13.32;;
33593;SDS011;19920;52.242;20.940;2023-12-20T00:19:18;19.88;;;12.93;;
33593;SDS011;19920;52.242;20.940;2023-12-20T00:21:44;17.95;;;12.98;;
33593;SDS011;19920;52.242;20.940;2023-12-20T00:24:09;16.60;;;12.68;;
33593;SDS011;19920;52.242;20.940;2023-12-20T00:26:35;17.05;;;12.32;;
33593;SDS011;19920;52.242;20.940;2023-12-20T00:29:00;18.30;;;12.75;;
33593;SDS011;19920;52.242;20.940;2023-12-20T00:31:26;15.55;;;12.10;;
33593;SDS011;19920;52.242;20.940;2023-12-20T00:33:51;16.48;;;12.82;;
33593;SDS011;19920;52.242;20.940;2023-12-20T00:36:17;15.68;;;12.40;;
33593;SDS011;19920;52.242;20.940;2023-12-20T00:38:43;17.02;;;12.77;;
33593;SDS011;19920;52.242;20.940;2023-12-20T00:41:08;16.05;;;12.65;;
33593;SDS011;19920;52.242;20.940;2023-12-20T00:43:34;15.85;;;12.13;;
33593;SDS011;19920;52.242;20.940;2023-12-20T00:45:59;14.82;;;12.20;;
33593;SDS011;19920;52.242;20.940;2023-12-20T00:48:25;16.77;;;12.10;;
33593;SDS011;19920;52.242;20.940;2023-12-20T00:50:52;16.33;;;12.57;;
33593;SDS011;19920;52.242;20.940;2023-12-20T00:53:18;14.77;;;11.93;;
33593;SDS011;19920;52.242;20.940;2023-12-20T00:55:43;15.77;;;11.68;;
33593;SDS011;19920;52.242;20.940;2023-12-20T00:58:09;17.33;;;12.70;;
33593;SDS011;19920;52.242;20.940;2023-12-20T01:00:35;15.73;;;12.75;;
33593;SDS011;19920;52.242;20.940;2023-12-20T01:03:00;14.75;;;11.38;;
33593;SDS011;19920;52.242;20.940;2023-12-20T01:05:26;15.38;;;12.40;;
33593;SDS011;19920;52.242;20.940;2023-12-20T01:07:52;16.15;;;12.13;;
33593;SDS011;19920;52.242;20.940;2023-12-20T01:10:17;15.43;;;10.63;;
33593;SDS011;19920;52.242;20.940;2023-12-20T01:12:43;15.77;;;11.40;;
33593;SDS011;19920;52.242;20.940;2023-12-20T01:15:09;16.27;;;11.30;;
33593;SDS011;19920;52.242;20.940;2023-12-20T01:17:34;14.43;;;10.75;;
33593;SDS011;19920;52.242;20.940;2023-12-20T01:20:00;15.43;;;11.13;;
33593;SDS011;19920;52.242;20.940;2023-12-20T01:22:26;14.80;;;10.75;;
33593;SDS011;19920;52.242;20.940;2023-12-20T01:24:52;14.68;;;10.50;;
33593;SDS011;19920;52.242;20.940;2023-12-20T01:27:17;13.73;;;10.38;;
33593;SDS011;19920;52.242;20.940;2023-12-20T01:29:43;15.30;;;11.27;;
33593;SDS011;19920;52.242;20.940;2023-12-20T01:32:08;14.68;;;10.48;;
33593;SDS011;19920;52.242;20.940;2023-12-20T01:34:34;14.45;;;10.18;;
33593;SDS011;19920;52.242;20.940;2023-12-20T01:37:00;16.10;;;10.07;;
33593;SDS011;19920;52.242;20.940;2023-12-20T01:39:26;13.65;;;9.82;;
33593;SDS011;19920;52.242;20.940;2023-12-20T01:41:52;14.00;;;10.82;;
33593;SDS011;19920;52.242;20.940;2023-12-20T01:44:17;12.88;;;10.35;;
33593;SDS011;19920;52.242;20.940;2023-12-20T01:46:43;12.65;;;9.18;;
33593;SDS011;19920;52.242;20.940;2023-12-20T01:49:09;12.98;;;10.25;;
33593;SDS011;19920;52.242;20.940;2023-12-20T01:51:34;13.70;;;10.35;;
33593;SDS011;19920;52.242;20.940;2023-12-20T01:54:01;13.43;;;9.52;;
33593;SDS011;19920;52.242;20.940;2023-12-20T01:56:26;12.80;;;10.05;;
33593;SDS011;19920;52.242;20.940;2023-12-20T01:58:54;12.48;;;9.43;;
33593;SDS011;19920;52.242;20.940;2023-12-20T02:01:21;12.80;;;9.93;;
33593;SDS011;19920;52.242;20.940;2023-12-20T02:03:47;12.88;;;8.95;;
33593;SDS011;19920;52.242;20.940;2023-12-20T02:06:13;12.43;;;8.30;;
33593;SDS011;19920;52.242;20.940;2023-12-20T02:08:39;11.30;;;8.35;;
33593;SDS011;19920;52.242;20.940;2023-12-20T02:11:05;10.95;;;8.68;;
33593;SDS011;19920;52.242;20.940;2023-12-20T02:13:31;11.52;;;8.63;;
33593;SDS011;19920;52.242;20.940;2023-12-20T02:15:57;11.00;;;8.50;;
33593;SDS011;19920;52.242;20.940;2023-12-20T02:18:22;10.82;;;8.65;;
33593;SDS011;19920;52.242;20.940;2023-12-20T02:20:48;11.65;;;8.90;;
33593;SDS011;19920;52.242;20.940;2023-12-20T02:23:14;10.48;;;8.40;;
33593;SDS011;19920;52.242;20.940;2023-12-20T02:25:39;12.80;;;8.02;;
33593;SDS011;19920;52.242;20.940;2023-12-20T02:28:05;9.15;;;7.00;;
33593;SDS011;19920;52.242;20.940;2023-12-20T02:30:31;9.63;;;7.25;;
33593;SDS011;19920;52.242;20.940;2023-12-20T02:32:57;10.18;;;6.60;;
33593;SDS011;19920;52.242;20.940;2023-12-20T02:35:25;7.95;;;6.28;;
33593;SDS011;19920;52.242;20.940;2023-12-20T02:37:50;8.50;;;5.75;;
33593;SDS011;19920;52.242;20.940;2023-12-20T02:40:16;6.88;;;5.63;;
33593;SDS011;19920;52.242;20.940;2023-12-20T02:42:41;6.95;;;5.57;;
33593;SDS011;19920;52.242;20.940;2023-12-20T02:45:07;6.18;;;4.43;;
33593;SDS011;19920;52.242;20.940;2023-12-20T02:47:33;5.60;;;4.47;;
33593;SDS011;19920;52.242;20.940;2023-12-20T02:49:58;6.15;;;4.07;;
33593;SDS011;19920;52.242;20.940;2023-12-20T02:52:24;6.07;;;4.07;;
33593;SDS011;19920;52.242;20.940;2023-12-20T02:54:50;4.93;;;3.65;;
33593;SDS011;19920;52.242;20.940;2023-12-20T02:57:15;5.18;;;3.85;;
33593;SDS011;19920;52.242;20.940;2023-12-20T02:59:41;4.78;;;3.55;;
33593;SDS011;19920;52.242;20.940;2023-12-20T03:02:07;5.63;;;3.83;;
33593;SDS011;19920;52.242;20.940;2023-12-20T03:04:32;5.57;;;3.95;;
33593;SDS011;19920;52.242;20.940;2023-12-20T03:06:58;4.57;;;3.83;;
33593;SDS011;19920;52.242;20.940;2023-12-20T03:09:23;5.10;;;4.10;;
33593;SDS011;19920;52.242;20.940;2023-12-20T03:11:49;5.40;;;4.18;;
33593;SDS011;19920;52.242;20.940;2023-12-20T03:14:14;5.53;;;4.18;;
33593;SDS011;19920;52.242;20.940;2023-12-20T03:16:40;5.68;;;4.45;;
33593;SDS011;19920;52.242;20.940;2023-12-20T03:19:06;5.65;;;3.95;;
33593;SDS011;19920;52.242;20.940;2023-12-20T03:21:31;6.88;;;4.20;;
33593;SDS011;19920;52.242;20.940;2023-12-20T03:23:57;5.85;;;4.05;;
33593;SDS011;19920;52.242;20.940;2023-12-20T03:26:22;5.88;;;4.28;;
33593;SDS011;19920;52.242;20.940;2023-12-20T03:28:48;10.82;;;4.93;;
33593;SDS011;19920;52.242;20.940;2023-12-20T03:31:14;5.10;;;4.15;;
33593;SDS011;19920;52.242;20.940;2023-12-20T03:33:39;5.93;;;4.50;;
33593;SDS011;19920;52.242;20.940;2023-12-20T03:36:05;5.07;;;3.97;;
33593;SDS011;19920;52.242;20.940;2023-12-20T03:38:31;5.53;;;4.00;;
33593;SDS011;19920;52.242;20.940;2023-12-20T03:40:56;5.82;;;4.05;;
33593;SDS011;19920;52.242;20.940;2023-12-20T03:43:22;4.75;;;3.90;;
33593;SDS011;19920;52.242;20.940;2023-12-20T03:45:47;6.05;;;4.20;;
33593;SDS011;19920;52.242;20.940;2023-12-20T03:48:13;4.78;;;3.85;;
33593;SDS011;19920;52.242;20.940;2023-12-20T03:50:38;4.28;;;3.80;;
33593;SDS011;19920;52.242;20.940;2023-12-20T03:53:04;5.20;;;3.83;;
33593;SDS011;19920;52.242;20.940;2023-12-20T03:55:30;4.32;;;3.92;;
33593;SDS011;19920;52.242;20.940;2023-12-20T03:57:55;5.80;;;3.72;;
33593;SDS011;19920;52.242;20.940;2023-12-20T04:00:21;4.97;;;3.90;;
33593;SDS011;19920;52.242;20.940;2023-12-20T04:02:46;5.13;;;4.22;;
33593;SDS011;19920;52.242;20.940;2023-12-20T04:05:12;5.43;;;4.45;;
33593;SDS011;19920;52.242;20.940;2023-12-20T04:07:38;5.47;;;4.15;;
33593;SDS011;19920;52.242;20.940;2023-12-20T04:10:04;4.90;;;4.05;;
33593;SDS011;19920;52.242;20.940;2023-12-20T04:12:30;6.88;;;4.50;;
33593;SDS011;19920;52.242;20.940;2023-12-20T04:14:56;5.82;;;4.85;;
33593;SDS011;19920;52.242;20.940;2023-12-20T04:17:22;6.53;;;5.30;;
33593;SDS011;19920;52.242;20.940;2023-12-20T04:19:48;6.05;;;5.28;;
33593;SDS011;19920;52.242;20.940;2023-12-20T04:22:14;9.70;;;5.30;;
33593;SDS011;19920;52.242;20.940;2023-12-20T04:24:39;7.20;;;5.50;;
33593;SDS011;19920;52.242;20.940;2023-12-20T04:27:07;7.43;;;5.85;;
33593;SDS011;19920;52.242;20.940;2023-12-20T04:29:33;7.38;;;6.32;;
33593;SDS011;19920;52.242;20.940;2023-12-20T04:31:58;8.40;;;6.97;;
33593;SDS011;19920;52.242;20.940;2023-12-20T04:34:24;8.52;;;6.75;;
33593;SDS011;19920;52.242;20.940;2023-12-20T04:36:50;9.30;;;7.07;;
33593;SDS011;19920;52.242;20.940;2023-12-20T04:39:15;8.80;;;7.25;;
33593;SDS011;19920;52.242;20.940;2023-12-20T04:41:41;10.00;;;7.82;;
33593;SDS011;19920;52.242;20.940;2023-12-20T04:44:06;9.20;;;7.25;;
33593;SDS011;19920;52.242;20.940;2023-12-20T04:46:32;10.27;;;7.80;;
33593;SDS011;19920;52.242;20.940;2023-12-20T04:48:58;9.32;;;7.75;;
33593;SDS011;19920;52.242;20.940;2023-12-20T04:51:23;9.85;;;7.90;;
33593;SDS011;19920;52.242;20.940;2023-12-20T04:53:49;9.05;;;7.65;;
33593;SDS011;19920;52.242;20.940;2023-12-20T04:56:14;11.18;;;8.27;;
33593;SDS011;19920;52.242;20.940;2023-12-20T04:58:40;9.48;;;8.32;;
33593;SDS011;19920;52.242;20.940;2023-12-20T05:01:08;10.77;;;7.82;;
33593;SDS011;19920;52.242;20.940;2023-12-20T05:03:34;9.90;;;8.15;;
33593;SDS011;19920;52.242;20.940;2023-12-20T05:05:59;10.68;;;8.15;;
33593;SDS011;19920;52.242;20.940;2023-12-20T05:08:25;9.43;;;7.93;;
33593;SDS011;19920;52.242;20.940;2023-12-20T05:10:51;11.02;;;8.82;;
33593;SDS011;19920;52.242;20.940;2023-12-20T05:13:18;9.57;;;7.85;;
33593;SDS011;19920;52.242;20.940;2023-12-20T05:15:44;11.73;;;8.80;;
33593;SDS011;19920;52.242;20.940;2023-12-20T05:18:10;10.30;;;8.40;;
33593;SDS011;19920;52.242;20.940;2023-12-20T05:20:35;9.50;;;8.48;;
33593;SDS011;19920;52.242;20.940;2023-12-20T05:23:01;11.85;;;8.43;;
33593;SDS011;19920;52.242;20.940;2023-12-20T05:25:26;10.23;;;8.82;;
33593;SDS011;19920;52.242;20.940;2023-12-20T05:27:52;10.38;;;8.85;;
33593;SDS011;19920;52.242;20.940;2023-12-20T05:30:18;10.43;;;8.40;;
33593;SDS011;19920;52.242;20.940;2023-12-20T05:32:43;11.85;;;9.00;;
33593;SDS011;19920;52.242;20.940;2023-12-20T05:35:09;11.70;;;9.00;;
33593;SDS011;19920;52.242;20.940;2023-12-20T05:37:34;10.35;;;8.75;;
33593;SDS011;19920;52.242;20.940;2023-12-20T05:40:00;10.10;;;8.73;;
33593;SDS011;19920;52.242;20.940;2023-12-20T05:42:25;11.57;;;9.73;;
33593;SDS011;19920;52.242;20.940;2023-12-20T05:44:51;10.82;;;9.18;;
33593;SDS011;19920;52.242;20.940;2023-12-20T05:47:16;11.98;;;9.13;;
33593;SDS011;19920;52.242;20.940;2023-12-20T05:49:43;12.13;;;9.07;;
33593;SDS011;19920;52.242;20.940;2023-12-20T05:52:10;11.23;;;8.85;;
33593;SDS011;19920;52.242;20.940;2023-12-20T05:54:35;11.02;;;9.10;;
33593;SDS011;19920;52.242;20.940;2023-12-20T05:57:01;9.77;;;8.50;;
33593;SDS011;19920;52.242;20.940;2023-12-20T05:59:27;12.57;;;9.48;;
33593;SDS011;19920;52.242;20.940;2023-12-20T06:01:52;10.65;;;9.13;;
33593;SDS011;19920;52.242;20.940;2023-12-20T06:04:18;11.50;;;9.13;;
33593;SDS011;19920;52.242;20.940;2023-12-20T06:06:44;9.43;;;8.35;;
33593;SDS011;19920;52.242;20.940;2023-12-20T06:09:10;11.00;;;9.05;;
33593;SDS011;19920;52.242;20.940;2023-12-20T06:11:36;10.63;;;8.93;;
33593;SDS011;19920;52.242;20.940;2023-12-20T06:14:01;11.43;;;8.57;;
33593;SDS011;19920;52.242;20.940;2023-12-20T06:16:27;10.23;;;8.73;;
33593;SDS011;19920;52.242;20.940;2023-12-20T06:18:52;11.77;;;8.55;;
33593;SDS011;19920;52.242;20.940;2023-12-20T06:21:18;12.15;;;8.40;;
33593;SDS011;19920;52.242;20.940;2023-12-20T06:23:43;11.98;;;9.02;;
33593;SDS011;19920;52.242;20.940;2023-12-20T06:26:09;10.82;;;8.77;;
33593;SDS011;19920;52.242;20.940;2023-12-20T06:28:35;10.85;;;8.43;;
33593;SDS011;19920;52.242;20.940;2023-12-20T06:31:00;9.80;;;7.88;;
33593;SDS011;19920;52.242;20.940;2023-12-20T06:33:26;9.07;;;7.75;;
33593;SDS011;19920;52.242;20.940;2023-12-20T06:35:52;11.43;;;8.75;;
33593;SDS011;19920;52.242;20.940;2023-12-20T06:38:18;10.20;;;8.25;;
33593;SDS011;19920;52.242;20.940;2023-12-20T06:40:44;9.38;;;8.00;;
33593;SDS011;19920;52.242;20.940;2023-12-20T06:43:10;10.25;;;8.35;;
33593;SDS011;19920;52.242;20.940;2023-12-20T06:45:37;11.15;;;9.00;;
33593;SDS011;19920;52.242;20.940;2023-12-20T06:48:03;11.95;;;9.73;;
33593;SDS011;19920;52.242;20.940;2023-12-20T06:50:28;12.13;;;9.10;;
33593;SDS011;19920;52.242;20.940;2023-12-20T06:52:54;11.93;;;8.80;;
33593;SDS011;19920;52.242;20.940;2023-12-20T06:55:19;9.63;;;8.15;;
33593;SDS011;19920;52.242;20.940;2023-12-20T06:57:45;10.57;;;8.35;;
33593;SDS011;19920;52.242;20.940;2023-12-20T07:00:11;11.90;;;8.68;;
33593;SDS011;19920;52.242;20.940;2023-12-20T07:02:37;12.88;;;10.10;;
33593;SDS011;19920;52.242;20.940;2023-12-20T07:05:02;11.77;;;9.50;;
33593;SDS011;19920;52.242;20.940;2023-12-20T07:07:29;12.73;;;10.00;;
33593;SDS011;19920;52.242;20.940;2023-12-20T07:09:55;13.15;;;10.35;;
33593;SDS011;19920;52.242;20.940;2023-12-20T07:12:20;12.35;;;10.43;;
33593;SDS011;19920;52.242;20.940;2023-12-20T07:14:46;12.23;;;9.65;;
33593;SDS011;19920;52.242;20.940;2023-12-20T07:17:12;11.73;;;8.80;;
33593;SDS011;19920;52.242;20.940;2023-12-20T07:19:39;11.25;;;8.77;;
33593;SDS011;19920;52.242;20.940;2023-12-20T07:22:06;12.82;;;9.43;;
33593;SDS011;19920;52.242;20.940;2023-12-20T07:24:32;12.38;;;9.43;;
33593;SDS011;19920;52.242;20.940;2023-12-20T07:26:59;11.85;;;8.55;;
33593;SDS011;19920;52.242;20.940;2023-12-20T07:29:25;10.75;;;8.50;;
33593;SDS011;19920;52.242;20.940;2023-12-20T07:31:52;12.15;;;9.32;;
33593;SDS011;19920;52.242;20.940;2023-12-20T07:34:18;12.50;;;9.77;;
33593;SDS011;19920;52.242;20.940;2023-12-20T07:36:47;12.35;;;8.98;;
33593;SDS011;19920;52.242;20.940;2023-12-20T07:39:13;11.73;;;9.85;;
33593;SDS011;19920;52.242;20.940;2023-12-20T07:41:39;11.32;;;8.68;;
33593;SDS011;19920;52.242;20.940;2023-12-20T07:44:04;10.63;;;8.73;;
33593;SDS011;19920;52.242;20.940;2023-12-20T07:46:30;11.27;;;8.77;;
33593;SDS011;19920;52.242;20.940;2023-12-20T07:48:56;15.30;;;8.93;;
33593;SDS011;19920;52.242;20.940;2023-12-20T07:51:21;12.07;;;8.82;;
33593;SDS011;19920;52.242;20.940;2023-12-20T07:53:47;10.50;;;8.05;;
33593;SDS011;19920;52.242;20.940;2023-12-20T07:58:41;10.60;;;8.65;;
33593;SDS011;19920;52.242;20.940;2023-12-20T08:01:07;11.38;;;8.93;;
33593;SDS011;19920;52.242;20.940;2023-12-20T08:03:33;12.98;;;8.30;;
33593;SDS011;19920;52.242;20.940;2023-12-20T08:05:59;11.45;;;8.90;;
33593;SDS011;19920;52.242;20.940;2023-12-20T08:08:25;11.00;;;8.57;;
33593;SDS011;19920;52.242;20.940;2023-12-20T08:10:51;10.02;;;8.05;;
33593;SDS011;19920;52.242;20.940;2023-12-20T08:13:16;9.98;;;7.75;;
33593;SDS011;19920;52.242;20.940;2023-12-20T08:15:42;10.25;;;7.80;;
33593;SDS011;19920;52.242;20.940;2023-12-20T08:18:07;9.45;;;7.80;;
33593;SDS011;19920;52.242;20.940;2023-12-20T08:20:33;10.02;;;7.63;;
33593;SDS011;19920;52.242;20.940;2023-12-20T08:22:58;10.95;;;8.02;;
33593;SDS011;19920;52.242;20.940;2023-12-20T08:25:24;10.50;;;8.10;;
33593;SDS011;19920;52.242;20.940;2023-12-20T08:27:50;9.00;;;7.07;;
33593;SDS011;19920;52.242;20.940;2023-12-20T08:30:15;10.43;;;7.47;;
33593;SDS011;19920;52.242;20.940;2023-12-20T08:32:45;10.38;;;7.63;;
33593;SDS011;19920;52.242;20.940;2023-12-20T08:35:11;11.25;;;8.20;;
33593;SDS011;19920;52.242;20.940;2023-12-20T08:37:37;9.68;;;7.55;;
33593;SDS011;19920;52.242;20.940;2023-12-20T08:40:02;10.00;;;7.63;;
33593;SDS011;19920;52.242;20.940;2023-12-20T08:42:28;8.63;;;7.03;;
33593;SDS011;19920;52.242;20.940;2023-12-20T08:44:56;8.98;;;7.28;;
33593;SDS011;19920;52.242;20.940;2023-12-20T08:47:23;10.07;;;7.72;;
33593;SDS011;19920;52.242;20.940;2023-12-20T08:49:49;9.40;;;7.00;;
33593;SDS011;19920;52.242;20.940;2023-12-20T08:52:14;8.73;;;6.95;;
33593;SDS011;19920;52.242;20.940;2023-12-20T08:54:40;8.55;;;6.53;;
33593;SDS011;19920;52.242;20.940;2023-12-20T08:57:05;8.77;;;6.93;;
33593;SDS011;19920;52.242;20.940;2023-12-20T08:59:32;9.35;;;7.80;;
33593;SDS011;19920;52.242;20.940;2023-12-20T09:01:57;8.23;;;7.05;;
33593;SDS011;19920;52.242;20.940;2023-12-20T09:04:23;9.88;;;7.07;;
33593;SDS011;19920;52.242;20.940;2023-12-20T09:06:49;9.15;;;7.45;;
33593;SDS011;19920;52.242;20.940;2023-12-20T09:09:14;10.82;;;7.32;;
33593;SDS011;19920;52.242;20.940;2023-12-20T09:11:40;8.80;;;6.93;;
33593;SDS011;19920;52.242;20.940;2023-12-20T09:14:06;8.68;;;7.20;;
33593;SDS011;19920;52.242;20.940;2023-12-20T09:16:32;7.88;;;6.70;;
33593;SDS011;19920;52.242;20.940;2023-12-20T09:18:57;8.40;;;6.60;;
33593;SDS011;19920;52.242;20.940;2023-12-20T09:21:23;10.38;;;7.53;;
33593;SDS011;19920;52.242;20.940;2023-12-20T09:23:49;8.00;;;6.50;;
33593;SDS011;19920;52.242;20.940;2023-12-20T09:26:14;8.90;;;7.07;;
33593;SDS011;19920;52.242;20.940;2023-12-20T09:28:40;9.10;;;7.03;;
33593;SDS011;19920;52.242;20.940;2023-12-20T09:31:05;9.98;;;8.10;;
33593;SDS011;19920;52.242;20.940;2023-12-20T09:33:31;10.15;;;8.48;;
33593;SDS011;19920;52.242;20.940;2023-12-20T09:36:00;10.50;;;8.02;;
33593;SDS011;19920;52.242;20.940;2023-12-20T09:38:26;9.30;;;7.10;;
33593;SDS011;19920;52.242;20.940;2023-12-20T09:40:51;9.80;;;6.15;;
33593;SDS011;19920;52.242;20.940;2023-12-20T09:43:19;9.10;;;6.53;;
33593;SDS011;19920;52.242;20.940;2023-12-20T09:45:47;8.43;;;6.82;;
33593;SDS011;19920;52.242;20.940;2023-12-20T09:48:13;11.30;;;7.22;;
33593;SDS011;19920;52.242;20.940;2023-12-20T09:50:43;7.40;;;6.13;;
33593;SDS011;19920;52.242;20.940;2023-12-20T09:53:09;11.80;;;5.80;;
33593;SDS011;19920;52.242;20.940;2023-12-20T09:55:36;6.88;;;5.68;;
33593;SDS011;19920;52.242;20.940;2023-12-20T09:58:04;8.93;;;5.93;;
33593;SDS011;19920;52.242;20.940;2023-12-20T10:00:31;8.18;;;6.28;;
33593;SDS011;19920;52.242;20.940;2023-12-20T10:02:58;7.30;;;6.10;;
33593;SDS011;19920;52.242;20.940;2023-12-20T10:05:28;9.90;;;6.72;;
33593;SDS011;19920;52.242;20.940;2023-12-20T10:07:58;8.13;;;6.05;;
33593;SDS011;19920;52.242;20.940;2023-12-20T10:10:25;8.65;;;6.55;;
33593;SDS011;19920;52.242;20.940;2023-12-20T10:13:12;9.50;;;5.82;;
33593;SDS011;19920;52.242;20.940;2023-12-20T10:15:37;8.77;;;6.78;;
33593;SDS011;19920;52.242;20.940;2023-12-20T10:18:03;7.00;;;5.93;;
33593;SDS011;19920;52.242;20.940;2023-12-20T10:20:30;7.90;;;6.18;;
33593;SDS011;19920;52.242;20.940;2023-12-20T10:22:57;7.43;;;5.55;;
33593;SDS011;19920;52.242;20.940;2023-12-20T10:25:23;7.38;;;6.00;;
33593;SDS011;19920;52.242;20.940;2023-12-20T10:27:50;9.65;;;6.20;;
33593;SDS011;19920;52.242;20.940;2023-12-20T10:30:33;7.10;;;5.90;;
33593;SDS011;19920;52.242;20.940;2023-12-20T10:32:59;8.82;;;6.03;;
33593;SDS011;19920;52.242;20.940;2023-12-20T10:35:24;7.63;;;6.05;;
33593;SDS011;19920;52.242;20.940;2023-12-20T10:37:51;6.82;;;6.05;;
33593;SDS011;19920;52.242;20.940;2023-12-20T10:40:24;7.78;;;5.93;;
33593;SDS011;19920;52.242;20.940;2023-12-20T10:42:52;8.43;;;5.95;;
33593;SDS011;19920;52.242;20.940;2023-12-20T10:45:19;7.07;;;5.93;;
33593;SDS011;19920;52.242;20.940;2023-12-20T10:47:46;7.82;;;6.00;;
33593;SDS011;19920;52.242;20.940;2023-12-20T10:50:12;6.88;;;5.80;;
33593;SDS011;19920;52.242;20.940;2023-12-20T10:52:37;7.88;;;5.78;;
33593;SDS011;19920;52.242;20.940;2023-12-20T10:55:05;8.30;;;6.13;;
33593;SDS011;19920;52.242;20.940;2023-12-20T10:57:31;7.53;;;5.85;;
33593;SDS011;19920;52.242;20.940;2023-12-20T10:59:58;9.50;;;5.35;;
33593;SDS011;19920;52.242;20.940;2023-12-20T11:02:29;6.82;;;5.63;;
33593;SDS011;19920;52.242;20.940;2023-12-20T11:05:04;6.93;;;5.90;;
33593;SDS011;19920;52.242;20.940;2023-12-20T11:07:48;8.88;;;6.00;;
33593;SDS011;19920;52.242;20.940;2023-12-20T11:10:31;8.35;;;5.60;;
33593;SDS011;19920;52.242;20.940;2023-12-20T11:13:08;6.63;;;5.63;;
33593;SDS011;19920;52.242;20.940;2023-12-20T11:15:41;6.07;;;5.13;;
33593;SDS011;19920;52.242;20.940;2023-12-20T11:18:08;6.45;;;5.40;;
33593;SDS011;19920;52.242;20.940;2023-12-20T11:20:40;8.45;;;5.68;;
33593;SDS011;19920;52.242;20.940;2023-12-20T11:23:10;7.38;;;6.18;;
33593;SDS011;19920;52.242;20.940;2023-12-20T11:25:48;6.80;;;5.60;;
33593;SDS011;19920;52.242;20.940;2023-12-20T11:28:22;6.68;;;5.93;;
33593;SDS011;19920;52.242;20.940;2023-12-20T11:30:53;6.65;;;5.53;;
33593;SDS011;19920;52.242;20.940;2023-12-20T11:33:23;8.20;;;5.40;;
33593;SDS011;19920;52.242;20.940;2023-12-20T11:35:50;6.20;;;5.20;;
33593;SDS011;19920;52.242;20.940;2023-12-20T11:38:16;7.60;;;5.25;;
33593;SDS011;19920;52.242;20.940;2023-12-20T11:40:42;6.60;;;5.53;;
33593;SDS011;19920;52.242;20.940;2023-12-20T11:43:09;6.45;;;4.70;;
33593;SDS011;19920;52.242;20.940;2023-12-20T11:45:35;5.50;;;4.80;;
33593;SDS011;19920;52.242;20.940;2023-12-20T11:48:03;7.85;;;5.68;;
33593;SDS011;19920;52.242;20.940;2023-12-20T11:50:29;7.93;;;6.05;;
33593;SDS011;19920;52.242;20.940;2023-12-20T11:52:55;7.30;;;6.07;;
33593;SDS011;19920;52.242;20.940;2023-12-20T11:55:24;7.00;;;5.68;;
33593;SDS011;19920;52.242;20.940;2023-12-20T11:57:50;8.23;;;6.40;;
33593;SDS011;19920;52.242;20.940;2023-12-20T12:00:16;7.30;;;5.63;;
33593;SDS011;19920;52.242;20.940;2023-12-20T12:02:42;7.97;;;6.28;;
33593;SDS011;19920;52.242;20.940;2023-12-20T12:05:08;8.10;;;5.90;;
33593;SDS011;19920;52.242;20.940;2023-12-20T12:07:34;8.02;;;6.05;;
33593;SDS011;19920;52.242;20.940;2023-12-20T12:10:00;7.78;;;6.80;;
33593;SDS011;19920;52.242;20.940;2023-12-20T12:12:26;8.57;;;6.95;;
33593;SDS011;19920;52.242;20.940;2023-12-20T12:14:52;8.15;;;6.78;;
33593;SDS011;19920;52.242;20.940;2023-12-20T12:17:19;7.47;;;6.40;;
33593;SDS011;19920;52.242;20.940;2023-12-20T12:19:44;10.23;;;7.35;;
33593;SDS011;19920;52.242;20.940;2023-12-20T12:22:11;10.63;;;8.07;;
33593;SDS011;19920;52.242;20.940;2023-12-20T12:24:42;9.57;;;7.22;;
33593;SDS011;19920;52.242;20.940;2023-12-20T12:27:09;8.60;;;7.22;;
33593;SDS011;19920;52.242;20.940;2023-12-20T12:29:35;9.13;;;7.38;;
33593;SDS011;19920;52.242;20.940;2023-12-20T12:32:10;10.48;;;7.43;;
33593;SDS011;19920;52.242;20.940;2023-12-20T12:34:36;9.70;;;7.47;;
33593;SDS011;19920;52.242;20.940;2023-12-20T12:37:02;10.18;;;7.43;;
33593;SDS011;19920;52.242;20.940;2023-12-20T12:39:29;9.75;;;7.20;;
33593;SDS011;19920;52.242;20.940;2023-12-20T12:41:55;12.60;;;7.95;;
33593;SDS011;19920;52.242;20.940;2023-12-20T12:44:21;10.50;;;8.13;;
33593;SDS011;19920;52.242;20.940;2023-12-20T12:46:48;12.52;;;8.00;;
33593;SDS011;19920;52.242;20.940;2023-12-20T12:49:18;13.68;;;9.00;;
33593;SDS011;19920;52.242;20.940;2023-12-20T12:51:46;12.98;;;9.25;;
33593;SDS011;19920;52.242;20.940;2023-12-20T12:54:12;13.55;;;9.20;;
33593;SDS011;19920;52.242;20.940;2023-12-20T12:56:38;11.05;;;9.10;;
33593;SDS011;19920;52.242;20.940;2023-12-20T12:59:04;10.43;;;8.57;;
33593;SDS011;19920;52.242;20.940;2023-12-20T13:01:30;12.15;;;9.18;;
33593;SDS011;19920;52.242;20.940;2023-12-20T13:03:56;13.82;;;9.40;;
33593;SDS011;19920;52.242;20.940;2023-12-20T13:06:22;13.27;;;10.07;;
33593;SDS011;19920;52.242;20.940;2023-12-20T13:08:47;14.02;;;9.82;;
33593;SDS011;19920;52.242;20.940;2023-12-20T13:11:13;14.25;;;9.73;;
33593;SDS011;19920;52.242;20.940;2023-12-20T13:13:39;12.43;;;9.15;;
33593;SDS011;19920;52.242;20.940;2023-12-20T13:16:05;13.02;;;9.20;;
33593;SDS011;19920;52.242;20.940;2023-12-20T13:18:30;11.25;;;8.73;;
33593;SDS011;19920;52.242;20.940;2023-12-20T13:20:56;13.73;;;9.40;;
33593;SDS011;19920;52.242;20.940;2023-12-20T13:23:21;12.98;;;9.80;;
33593;SDS011;19920;52.242;20.940;2023-12-20T13:25:47;12.18;;;9.43;;
33593;SDS011;19920;52.242;20.940;2023-12-20T13:28:13;14.00;;;8.65;;
33593;SDS011;19920;52.242;20.940;2023-12-20T13:30:39;13.35;;;9.60;;
33593;SDS011;19920;52.242;20.940;2023-12-20T13:33:05;11.73;;;8.90;;
33593;SDS011;19920;52.242;20.940;2023-12-20T13:35:31;13.57;;;8.68;;
33593;SDS011;19920;52.242;20.940;2023-12-20T13:37:58;13.15;;;8.10;;
33593;SDS011;19920;52.242;20.940;2023-12-20T13:40:25;13.68;;;7.97;;
33593;SDS011;19920;52.242;20.940;2023-12-20T13:42:51;10.25;;;8.32;;
33593;SDS011;19920;52.242;20.940;2023-12-20T13:45:17;11.13;;;8.35;;
33593;SDS011;19920;52.242;20.940;2023-12-20T13:47:43;11.32;;;8.02;;
33593;SDS011;19920;52.242;20.940;2023-12-20T13:50:08;12.70;;;8.52;;
33593;SDS011;19920;52.242;20.940;2023-12-20T13:52:35;13.40;;;8.48;;
33593;SDS011;19920;52.242;20.940;2023-12-20T13:55:01;10.40;;;7.07;;
33593;SDS011;19920;52.242;20.940;2023-12-20T13:57:27;12.15;;;8.13;;
33593;SDS011;19920;52.242;20.940;2023-12-20T13:59:54;9.45;;;7.47;;
33593;SDS011;19920;52.242;20.940;2023-12-20T14:02:22;10.60;;;7.30;;
33593;SDS011;19920;52.242;20.940;2023-12-20T14:04:48;8.35;;;6.82;;
33593;SDS011;19920;52.242;20.940;2023-12-20T14:07:13;11.70;;;6.80;;
33593;SDS011;19920;52.242;20.940;2023-12-20T14:09:39;8.48;;;6.68;;
33593;SDS011;19920;52.242;20.940;2023-12-20T14:12:10;9.32;;;6.15;;
33593;SDS011;19920;52.242;20.940;2023-12-20T14:14:36;9.15;;;6.30;;
33593;SDS011;19920;52.242;20.940;2023-12-20T14:17:01;10.90;;;6.43;;
33593;SDS011;19920;52.242;20.940;2023-12-20T14:19:27;7.30;;;5.75;;
33593;SDS011;19920;52.242;20.940;2023-12-20T14:21:53;10.07;;;7.05;;
33593;SDS011;19920;52.242;20.940;2023-12-20T14:24:18;8.52;;;5.63;;